Weather at Heliport-Facility 5a Heliport

Public forecast

Using degrees Fahrenheit for public forecast. Weather courtesy of forecast.io.

Closest aviation weather report (METAR) to Heliport-Facility 5a Heliport

Closest report is Grand Prairie Municipal Airport, 3.9 nm (7.2 km) S.

2024/02/24 09:35 (retrieved 16 minutes ago)

KGPM 240935Z AUTO 26003KT 10SM CLR 13/00 A3013 RMK AO2 T01260000

Closest aviation forecast (TAF) to Heliport-Facility 5a Heliport

Closest forecast is Arlington Municipal Airport, 6.2 nm (11.5 km) SSW.

2024/02/24 09:22 Ammendment (retrieved 29 minutes ago)

TAF AMD KGKY 240920Z 2409/2506 26004KT P6SM FEW250 FM242100 17009KT P6SM FEW250